sensor_id;sensor_type;location;lat;lon;timestamp;pressure;altitude;pressure_sealevel;temperature;humidity
62055;BME280;48653;51.742;-1.256;2023-06-14T00:01:51;101049.11;;;17.56;35.23
62055;BME280;48653;51.742;-1.256;2023-06-14T00:04:17;101051.19;;;17.86;34.66
62055;BME280;48653;51.742;-1.256;2023-06-14T00:06:43;101055.76;;;17.49;35.13
62055;BME280;48653;51.742;-1.256;2023-06-14T00:09:08;101057.67;;;17.77;35.58
62055;BME280;48653;51.742;-1.256;2023-06-14T00:11:33;101056.90;;;17.28;35.83
62055;BME280;48653;51.742;-1.256;2023-06-14T00:13:58;101054.37;;;16.63;36.08
62055;BME280;48653;51.742;-1.256;2023-06-14T00:16:24;101055.91;;;17.33;35.45
62055;BME280;48653;51.742;-1.256;2023-06-14T00:18:50;101056.10;;;17.17;35.65
62055;BME280;48653;51.742;-1.256;2023-06-14T00:21:15;101056.97;;;17.07;35.93
62055;BME280;48653;51.742;-1.256;2023-06-14T00:23:41;101057.49;;;16.64;36.12
62055;BME280;48653;51.742;-1.256;2023-06-14T00:26:07;101059.09;;;16.82;36.15
62055;BME280;48653;51.742;-1.256;2023-06-14T00:28:32;101066.47;;;16.83;35.73
62055;BME280;48653;51.742;-1.256;2023-06-14T00:30:57;101069.28;;;17.10;36.17
62055;BME280;48653;51.742;-1.256;2023-06-14T00:33:23;101072.49;;;16.17;36.46
62055;BME280;48653;51.742;-1.256;2023-06-14T00:35:49;101073.39;;;16.63;36.59
62055;BME280;48653;51.742;-1.256;2023-06-14T00:38:14;101072.34;;;16.10;36.96
62055;BME280;48653;51.742;-1.256;2023-06-14T00:40:39;101080.14;;;16.57;36.33
62055;BME280;48653;51.742;-1.256;2023-06-14T00:43:04;101079.22;;;16.21;36.92
62055;BME280;48653;51.742;-1.256;2023-06-14T00:45:30;101081.09;;;15.60;37.69
62055;BME280;48653;51.742;-1.256;2023-06-14T00:47:56;101082.37;;;15.45;38.00
62055;BME280;48653;51.742;-1.256;2023-06-14T00:50:21;101083.24;;;15.96;36.85
62055;BME280;48653;51.742;-1.256;2023-06-14T00:52:46;101089.06;;;15.82;37.59
62055;BME280;48653;51.742;-1.256;2023-06-14T00:55:11;101092.93;;;15.74;37.66
62055;BME280;48653;51.742;-1.256;2023-06-14T00:57:37;101096.42;;;15.65;37.88
62055;BME280;48653;51.742;-1.256;2023-06-14T01:00:03;101095.91;;;15.74;37.81
62055;BME280;48653;51.742;-1.256;2023-06-14T01:02:28;101095.93;;;15.79;37.89
62055;BME280;48653;51.742;-1.256;2023-06-14T01:04:53;101093.98;;;15.03;39.30
62055;BME280;48653;51.742;-1.256;2023-06-14T01:07:33;101093.25;;;15.61;38.67
62055;BME280;48653;51.742;-1.256;2023-06-14T01:09:51;101097.89;;;14.93;39.67
62055;BME280;48653;51.742;-1.256;2023-06-14T01:12:15;101097.91;;;15.04;38.97
62055;BME280;48653;51.742;-1.256;2023-06-14T01:14:34;101095.48;;;15.73;38.85
62055;BME280;48653;51.742;-1.256;2023-06-14T01:16:59;101095.09;;;15.69;38.67
62055;BME280;48653;51.742;-1.256;2023-06-14T01:19:24;101098.24;;;15.43;38.89
62055;BME280;48653;51.742;-1.256;2023-06-14T01:21:49;101098.80;;;15.15;39.17
62055;BME280;48653;51.742;-1.256;2023-06-14T01:24:14;101095.63;;;14.10;40.32
62055;BME280;48653;51.742;-1.256;2023-06-14T01:26:40;101090.65;;;14.94;39.88
62055;BME280;48653;51.742;-1.256;2023-06-14T01:29:06;101094.05;;;14.35;40.47
62055;BME280;48653;51.742;-1.256;2023-06-14T01:31:31;101091.33;;;14.74;39.78
62055;BME280;48653;51.742;-1.256;2023-06-14T01:33:56;101095.54;;;14.47;40.65
62055;BME280;48653;51.742;-1.256;2023-06-14T01:36:22;101099.79;;;14.27;40.86
62055;BME280;48653;51.742;-1.256;2023-06-14T01:38:47;101099.62;;;14.09;41.06
62055;BME280;48653;51.742;-1.256;2023-06-14T01:41:13;101096.45;;;14.10;41.39
62055;BME280;48653;51.742;-1.256;2023-06-14T01:43:38;101098.42;;;14.69;40.42
62055;BME280;48653;51.742;-1.256;2023-06-14T01:46:03;101097.15;;;14.13;41.23
62055;BME280;48653;51.742;-1.256;2023-06-14T01:48:28;101093.65;;;14.16;41.38
62055;BME280;48653;51.742;-1.256;2023-06-14T01:50:53;101097.66;;;13.75;42.01
62055;BME280;48653;51.742;-1.256;2023-06-14T01:53:18;101100.71;;;13.53;42.69
62055;BME280;48653;51.742;-1.256;2023-06-14T01:55:45;101101.15;;;13.70;42.50
62055;BME280;48653;51.742;-1.256;2023-06-14T01:58:09;101102.23;;;14.16;41.32
62055;BME280;48653;51.742;-1.256;2023-06-14T02:00:34;101102.95;;;13.25;43.31
62055;BME280;48653;51.742;-1.256;2023-06-14T02:02:59;101099.85;;;13.47;42.80
62055;BME280;48653;51.742;-1.256;2023-06-14T02:05:24;101093.96;;;14.17;41.89
62055;BME280;48653;51.742;-1.256;2023-06-14T02:07:50;101094.63;;;14.11;41.99
62055;BME280;48653;51.742;-1.256;2023-06-14T02:10:15;101094.85;;;13.96;41.36
62055;BME280;48653;51.742;-1.256;2023-06-14T02:12:40;101096.62;;;13.52;42.56
62055;BME280;48653;51.742;-1.256;2023-06-14T02:15:06;101101.11;;;13.42;43.06
62055;BME280;48653;51.742;-1.256;2023-06-14T02:17:30;101098.52;;;13.57;42.97
62055;BME280;48653;51.742;-1.256;2023-06-14T02:19:55;101096.20;;;14.21;42.00
62055;BME280;48653;51.742;-1.256;2023-06-14T02:22:21;101095.62;;;13.47;43.18
62055;BME280;48653;51.742;-1.256;2023-06-14T02:24:46;101093.45;;;13.54;43.31
62055;BME280;48653;51.742;-1.256;2023-06-14T02:27:12;101093.16;;;13.60;42.82
62055;BME280;48653;51.742;-1.256;2023-06-14T02:29:37;101093.31;;;13.75;42.79
62055;BME280;48653;51.742;-1.256;2023-06-14T02:32:02;101094.08;;;13.03;43.95
62055;BME280;48653;51.742;-1.256;2023-06-14T02:34:27;101088.27;;;13.18;44.07
62055;BME280;48653;51.742;-1.256;2023-06-14T02:36:52;101080.03;;;13.65;42.49
62055;BME280;48653;51.742;-1.256;2023-06-14T02:39:17;101079.66;;;13.34;42.99
62055;BME280;48653;51.742;-1.256;2023-06-14T02:41:42;101077.81;;;12.90;44.91
62055;BME280;48653;51.742;-1.256;2023-06-14T02:44:10;101072.87;;;13.04;44.34
62055;BME280;48653;51.742;-1.256;2023-06-14T02:46:33;101078.33;;;12.95;44.14
62055;BME280;48653;51.742;-1.256;2023-06-14T02:48:59;101078.90;;;13.46;43.89
62055;BME280;48653;51.742;-1.256;2023-06-14T02:51:23;101085.63;;;13.18;44.33
62055;BME280;48653;51.742;-1.256;2023-06-14T02:53:48;101090.81;;;13.06;44.69
62055;BME280;48653;51.742;-1.256;2023-06-14T02:56:14;101092.85;;;13.01;44.72
62055;BME280;48653;51.742;-1.256;2023-06-14T02:58:39;101089.34;;;13.20;44.58
62055;BME280;48653;51.742;-1.256;2023-06-14T03:01:04;101091.20;;;12.71;45.86
62055;BME280;48653;51.742;-1.256;2023-06-14T03:03:30;101088.36;;;13.67;43.20
62055;BME280;48653;51.742;-1.256;2023-06-14T03:05:55;101093.71;;;13.40;44.15
62055;BME280;48653;51.742;-1.256;2023-06-14T03:08:20;101090.20;;;13.25;43.49
62055;BME280;48653;51.742;-1.256;2023-06-14T03:10:46;101091.09;;;13.49;44.03
62055;BME280;48653;51.742;-1.256;2023-06-14T03:13:11;101097.84;;;12.85;45.39
62055;BME280;48653;51.742;-1.256;2023-06-14T03:15:36;101095.05;;;13.06;45.67
62055;BME280;48653;51.742;-1.256;2023-06-14T03:18:02;101092.10;;;12.74;45.36
62055;BME280;48653;51.742;-1.256;2023-06-14T03:20:27;101091.59;;;13.11;45.38
62055;BME280;48653;51.742;-1.256;2023-06-14T03:22:52;101089.28;;;13.23;45.09
62055;BME280;48653;51.742;-1.256;2023-06-14T03:25:17;101087.08;;;12.90;45.88
62055;BME280;48653;51.742;-1.256;2023-06-14T03:27:43;101086.25;;;13.57;44.30
62055;BME280;48653;51.742;-1.256;2023-06-14T03:30:09;101091.75;;;13.44;44.74
62055;BME280;48653;51.742;-1.256;2023-06-14T03:32:34;101089.84;;;13.62;44.28
62055;BME280;48653;51.742;-1.256;2023-06-14T03:35:00;101089.39;;;13.18;44.58
62055;BME280;48653;51.742;-1.256;2023-06-14T03:37:25;101081.99;;;12.84;45.67
62055;BME280;48653;51.742;-1.256;2023-06-14T03:39:50;101083.02;;;13.37;45.66
62055;BME280;48653;51.742;-1.256;2023-06-14T03:42:15;101082.32;;;13.26;44.83
62055;BME280;48653;51.742;-1.256;2023-06-14T03:44:40;101080.87;;;13.75;44.28
62055;BME280;48653;51.742;-1.256;2023-06-14T03:47:06;101086.28;;;12.89;46.76
62055;BME280;48653;51.742;-1.256;2023-06-14T03:49:31;101088.65;;;12.99;46.45
62055;BME280;48653;51.742;-1.256;2023-06-14T03:51:57;101091.85;;;13.02;46.87
62055;BME280;48653;51.742;-1.256;2023-06-14T03:54:22;101089.10;;;13.29;46.23
62055;BME280;48653;51.742;-1.256;2023-06-14T03:56:47;101090.07;;;13.27;46.70
62055;BME280;48653;51.742;-1.256;2023-06-14T03:59:12;101092.83;;;13.37;45.75
62055;BME280;48653;51.742;-1.256;2023-06-14T04:01:37;101094.95;;;13.26;46.41
62055;BME280;48653;51.742;-1.256;2023-06-14T04:04:03;101094.99;;;12.84;47.16
62055;BME280;48653;51.742;-1.256;2023-06-14T04:06:28;101095.72;;;12.81;46.59
62055;BME280;48653;51.742;-1.256;2023-06-14T04:08:54;101094.77;;;13.55;46.33
62055;BME280;48653;51.742;-1.256;2023-06-14T04:11:20;101086.84;;;13.72;45.47
62055;BME280;48653;51.742;-1.256;2023-06-14T04:13:44;101092.70;;;13.00;47.26
62055;BME280;48653;51.742;-1.256;2023-06-14T04:16:10;101089.44;;;12.83;48.07
62055;BME280;48653;51.742;-1.256;2023-06-14T04:18:35;101087.86;;;13.68;45.94
62055;BME280;48653;51.742;-1.256;2023-06-14T04:21:00;101089.89;;;13.72;45.85
62055;BME280;48653;51.742;-1.256;2023-06-14T04:23:25;101097.32;;;13.57;46.31
62055;BME280;48653;51.742;-1.256;2023-06-14T04:25:51;101098.98;;;13.13;46.83
62055;BME280;48653;51.742;-1.256;2023-06-14T04:28:16;101097.52;;;13.28;46.94
62055;BME280;48653;51.742;-1.256;2023-06-14T04:30:42;101095.24;;;12.93;47.54
62055;BME280;48653;51.742;-1.256;2023-06-14T04:33:07;101094.62;;;13.56;45.93
62055;BME280;48653;51.742;-1.256;2023-06-14T04:35:32;101094.06;;;13.35;46.50
62055;BME280;48653;51.742;-1.256;2023-06-14T04:37:58;101097.12;;;13.10;47.18
62055;BME280;48653;51.742;-1.256;2023-06-14T04:40:23;101094.22;;;13.54;46.23
62055;BME280;48653;51.742;-1.256;2023-06-14T04:42:49;101096.63;;;13.03;47.75
62055;BME280;48653;51.742;-1.256;2023-06-14T04:45:14;101096.76;;;13.33;47.14
62055;BME280;48653;51.742;-1.256;2023-06-14T04:47:40;101102.93;;;12.73;47.85
62055;BME280;48653;51.742;-1.256;2023-06-14T04:50:05;101102.83;;;13.09;47.65
62055;BME280;48653;51.742;-1.256;2023-06-14T04:52:30;101104.00;;;13.31;47.40
62055;BME280;48653;51.742;-1.256;2023-06-14T04:54:56;101110.11;;;12.45;49.40
62055;BME280;48653;51.742;-1.256;2023-06-14T04:57:21;101109.51;;;12.70;48.57
62055;BME280;48653;51.742;-1.256;2023-06-14T04:59:47;101111.29;;;12.99;48.84
62055;BME280;48653;51.742;-1.256;2023-06-14T05:02:13;101111.99;;;12.97;48.01
62055;BME280;48653;51.742;-1.256;2023-06-14T05:04:38;101114.83;;;12.81;48.36
62055;BME280;48653;51.742;-1.256;2023-06-14T05:07:03;101118.26;;;12.04;50.32
62055;BME280;48653;51.742;-1.256;2023-06-14T05:09:29;101118.05;;;12.63;49.62
62055;BME280;48653;51.742;-1.256;2023-06-14T05:11:54;101112.89;;;12.47;49.53
62055;BME280;48653;51.742;-1.256;2023-06-14T05:14:20;101112.16;;;12.29;49.49
62055;BME280;48653;51.742;-1.256;2023-06-14T05:16:45;101112.54;;;11.88;51.18
62055;BME280;48653;51.742;-1.256;2023-06-14T05:19:10;101113.71;;;11.84;51.14
62055;BME280;48653;51.742;-1.256;2023-06-14T05:21:36;101113.55;;;12.53;50.06
62055;BME280;48653;51.742;-1.256;2023-06-14T05:24:01;101115.97;;;12.79;49.34
62055;BME280;48653;51.742;-1.256;2023-06-14T05:26:27;101114.27;;;12.78;49.51
62055;BME280;48653;51.742;-1.256;2023-06-14T05:28:53;101115.07;;;12.08;51.08
62055;BME280;48653;51.742;-1.256;2023-06-14T05:31:18;101108.13;;;12.39;50.56
62055;BME280;48653;51.742;-1.256;2023-06-14T05:33:44;101108.25;;;11.79;51.95
62055;BME280;48653;51.742;-1.256;2023-06-14T05:36:09;101107.12;;;12.42;50.86
62055;BME280;48653;51.742;-1.256;2023-06-14T05:38:35;101105.67;;;12.64;50.14
62055;BME280;48653;51.742;-1.256;2023-06-14T05:41:01;101107.40;;;12.61;50.09
62055;BME280;48653;51.742;-1.256;2023-06-14T05:43:26;101108.40;;;13.09;48.82
62055;BME280;48653;51.742;-1.256;2023-06-14T05:45:52;101107.50;;;13.76;48.53
62055;BME280;48653;51.742;-1.256;2023-06-14T05:48:17;101106.00;;;13.65;48.39
62055;BME280;48653;51.742;-1.256;2023-06-14T05:50:42;101105.83;;;13.74;47.61
62055;BME280;48653;51.742;-1.256;2023-06-14T05:53:08;101105.85;;;14.19;47.10
62055;BME280;48653;51.742;-1.256;2023-06-14T05:55:33;101108.50;;;13.72;47.69
62055;BME280;48653;51.742;-1.256;2023-06-14T05:57:58;101111.26;;;13.86;47.04
62055;BME280;48653;51.742;-1.256;2023-06-14T06:00:24;101109.95;;;13.93;47.79
62055;BME280;48653;51.742;-1.256;2023-06-14T06:02:49;101107.05;;;13.67;48.41
62055;BME280;48653;51.742;-1.256;2023-06-14T06:05:14;101111.59;;;12.95;49.29
62055;BME280;48653;51.742;-1.256;2023-06-14T06:07:39;101107.43;;;14.28;47.70
62055;BME280;48653;51.742;-1.256;2023-06-14T06:10:05;101106.75;;;13.89;47.67
62055;BME280;48653;51.742;-1.256;2023-06-14T06:12:29;101108.98;;;13.51;49.03
62055;BME280;48653;51.742;-1.256;2023-06-14T06:14:55;101113.41;;;14.36;47.69
62055;BME280;48653;51.742;-1.256;2023-06-14T06:17:20;101113.88;;;13.40;50.10
62055;BME280;48653;51.742;-1.256;2023-06-14T06:19:45;101114.12;;;13.77;49.34
62055;BME280;48653;51.742;-1.256;2023-06-14T06:22:11;101115.86;;;13.92;48.76
62055;BME280;48653;51.742;-1.256;2023-06-14T06:24:37;101114.60;;;14.28;48.40
62055;BME280;48653;51.742;-1.256;2023-06-14T06:27:01;101115.25;;;14.67;47.67
62055;BME280;48653;51.742;-1.256;2023-06-14T06:29:26;101116.97;;;14.84;47.49
62055;BME280;48653;51.742;-1.256;2023-06-14T06:31:52;101119.91;;;14.79;47.01
62055;BME280;48653;51.742;-1.256;2023-06-14T06:34:17;101120.31;;;15.20;46.37
62055;BME280;48653;51.742;-1.256;2023-06-14T06:36:43;101120.98;;;16.05;45.39
62055;BME280;48653;51.742;-1.256;2023-06-14T06:39:08;101122.41;;;16.24;45.20
62055;BME280;48653;51.742;-1.256;2023-06-14T06:41:33;101124.62;;;16.55;44.89
62055;BME280;48653;51.742;-1.256;2023-06-14T06:43:59;101126.91;;;16.40;44.88
62055;BME280;48653;51.742;-1.256;2023-06-14T06:46:24;101125.36;;;15.64;45.81
62055;BME280;48653;51.742;-1.256;2023-06-14T06:48:49;101124.86;;;16.36;45.62
62055;BME280;48653;51.742;-1.256;2023-06-14T06:51:14;101129.78;;;16.67;44.94
62055;BME280;48653;51.742;-1.256;2023-06-14T06:53:42;101125.45;;;16.02;45.86
62055;BME280;48653;51.742;-1.256;2023-06-14T06:56:05;101128.53;;;16.05;45.40
62055;BME280;48653;51.742;-1.256;2023-06-14T06:58:30;101123.99;;;16.50;46.15
62055;BME280;48653;51.742;-1.256;2023-06-14T07:00:56;101125.20;;;16.49;47.13
62055;BME280;48653;51.742;-1.256;2023-06-14T07:03:21;101131.44;;;16.57;46.06
62055;BME280;48653;51.742;-1.256;2023-06-14T07:05:47;101132.91;;;16.78;45.82
62055;BME280;48653;51.742;-1.256;2023-06-14T07:08:12;101136.90;;;17.58;45.32
62055;BME280;48653;51.742;-1.256;2023-06-14T07:10:37;101135.52;;;17.11;44.91
62055;BME280;48653;51.742;-1.256;2023-06-14T07:13:02;101137.06;;;17.88;43.83
62055;BME280;48653;51.742;-1.256;2023-06-14T07:15:28;101130.90;;;18.45;42.89
62055;BME280;48653;51.742;-1.256;2023-06-14T07:17:53;101128.26;;;18.53;42.50
62055;BME280;48653;51.742;-1.256;2023-06-14T07:20:18;101125.85;;;18.55;42.47
62055;BME280;48653;51.742;-1.256;2023-06-14T07:22:43;101125.79;;;18.77;41.93
62055;BME280;48653;51.742;-1.256;2023-06-14T07:25:09;101133.90;;;19.35;41.73
62055;BME280;48653;51.742;-1.256;2023-06-14T07:27:34;101132.70;;;19.43;41.17
62055;BME280;48653;51.742;-1.256;2023-06-14T07:30:00;101133.34;;;19.64;40.64
62055;BME280;48653;51.742;-1.256;2023-06-14T07:32:26;101137.99;;;19.42;40.60
62055;BME280;48653;51.742;-1.256;2023-06-14T07:34:51;101137.37;;;19.13;41.50
62055;BME280;48653;51.742;-1.256;2023-06-14T07:37:16;101136.43;;;19.06;42.10
62055;BME280;48653;51.742;-1.256;2023-06-14T07:39:41;101138.15;;;19.42;41.08
62055;BME280;48653;51.742;-1.256;2023-06-14T07:42:06;101133.75;;;19.74;41.07
62055;BME280;48653;51.742;-1.256;2023-06-14T07:44:31;101132.74;;;19.70;40.73
62055;BME280;48653;51.742;-1.256;2023-06-14T07:46:56;101135.01;;;19.99;39.86
62055;BME280;48653;51.742;-1.256;2023-06-14T07:49:21;101132.46;;;20.05;39.62
62055;BME280;48653;51.742;-1.256;2023-06-14T07:51:46;101135.12;;;19.29;40.48
62055;BME280;48653;51.742;-1.256;2023-06-14T07:54:11;101137.70;;;20.06;40.09
62055;BME280;48653;51.742;-1.256;2023-06-14T07:56:36;101137.92;;;19.96;39.64
62055;BME280;48653;51.742;-1.256;2023-06-14T07:59:02;101135.66;;;19.98;39.52
62055;BME280;48653;51.742;-1.256;2023-06-14T08:01:27;101135.56;;;20.31;39.69
62055;BME280;48653;51.742;-1.256;2023-06-14T08:03:52;101140.77;;;20.84;38.82
62055;BME280;48653;51.742;-1.256;2023-06-14T08:06:17;101140.09;;;21.70;37.77
62055;BME280;48653;51.742;-1.256;2023-06-14T08:08:42;101142.32;;;21.28;38.04
62055;BME280;48653;51.742;-1.256;2023-06-14T08:11:07;101145.06;;;20.31;38.92
62055;BME280;48653;51.742;-1.256;2023-06-14T08:13:32;101142.90;;;21.29;37.89
62055;BME280;48653;51.742;-1.256;2023-06-14T08:15:58;101141.71;;;21.85;37.28
62055;BME280;48653;51.742;-1.256;2023-06-14T08:18:23;101137.12;;;22.29;36.85
62055;BME280;48653;51.742;-1.256;2023-06-14T08:20:49;101137.66;;;22.20;37.37
62055;BME280;48653;51.742;-1.256;2023-06-14T08:23:13;101137.38;;;22.17;36.54
62055;BME280;48653;51.742;-1.256;2023-06-14T08:25:39;101141.79;;;22.16;36.20
62055;BME280;48653;51.742;-1.256;2023-06-14T08:28:04;101134.72;;;23.17;35.09
62055;BME280;48653;51.742;-1.256;2023-06-14T08:30:29;101138.18;;;22.78;34.46
62055;BME280;48653;51.742;-1.256;2023-06-14T08:32:55;101139.76;;;23.27;34.49
62055;BME280;48653;51.742;-1.256;2023-06-14T08:35:20;101142.47;;;22.95;35.03
62055;BME280;48653;51.742;-1.256;2023-06-14T08:37:45;101143.94;;;23.11;34.80
62055;BME280;48653;51.742;-1.256;2023-06-14T08:40:18;101140.40;;;24.53;33.41
62055;BME280;48653;51.742;-1.256;2023-06-14T08:42:36;101142.79;;;23.14;34.65
62055;BME280;48653;51.742;-1.256;2023-06-14T08:45:00;101138.21;;;23.23;33.81
62055;BME280;48653;51.742;-1.256;2023-06-14T08:47:25;101135.39;;;23.68;34.00
62055;BME280;48653;51.742;-1.256;2023-06-14T08:49:51;101137.55;;;24.71;33.30
62055;BME280;48653;51.742;-1.256;2023-06-14T08:52:19;101138.39;;;23.52;34.61
62055;BME280;48653;51.742;-1.256;2023-06-14T08:54:41;101135.73;;;23.28;34.32
62055;BME280;48653;51.742;-1.256;2023-06-14T08:57:06;101135.46;;;23.89;33.70
62055;BME280;48653;51.742;-1.256;2023-06-14T08:59:31;101133.42;;;24.29;34.15
62055;BME280;48653;51.742;-1.256;2023-06-14T09:01:56;101129.52;;;24.80;32.98
62055;BME280;48653;51.742;-1.256;2023-06-14T09:04:22;101129.30;;;24.48;33.23
62055;BME280;48653;51.742;-1.256;2023-06-14T09:06:47;101127.90;;;23.85;33.01
62055;BME280;48653;51.742;-1.256;2023-06-14T09:09:12;101127.39;;;23.72;34.41
62055;BME280;48653;51.742;-1.256;2023-06-14T09:11:37;101125.95;;;24.06;34.12
62055;BME280;48653;51.742;-1.256;2023-06-14T09:14:02;101125.18;;;23.60;33.61
62055;BME280;48653;51.742;-1.256;2023-06-14T09:16:27;101130.14;;;24.65;33.75
62055;BME280;48653;51.742;-1.256;2023-06-14T09:18:54;101126.95;;;24.91;33.29
62055;BME280;48653;51.742;-1.256;2023-06-14T09:21:18;101125.94;;;25.08;33.48
62055;BME280;48653;51.742;-1.256;2023-06-14T09:23:44;101129.58;;;26.38;30.79
62055;BME280;48653;51.742;-1.256;2023-06-14T09:26:09;101129.56;;;26.27;31.49
62055;BME280;48653;51.742;-1.256;2023-06-14T09:28:33;101134.07;;;25.99;32.20
62055;BME280;48653;51.742;-1.256;2023-06-14T09:31:00;101134.28;;;26.40;31.75
62055;BME280;48653;51.742;-1.256;2023-06-14T09:33:25;101135.30;;;27.26;30.45
62055;BME280;48653;51.742;-1.256;2023-06-14T09:35:51;101134.86;;;26.89;30.58
62055;BME280;48653;51.742;-1.256;2023-06-14T09:38:15;101135.65;;;27.30;30.86
62055;BME280;48653;51.742;-1.256;2023-06-14T09:40:40;101131.33;;;26.86;30.67
62055;BME280;48653;51.742;-1.256;2023-06-14T09:43:06;101132.11;;;26.96;31.29
62055;BME280;48653;51.742;-1.256;2023-06-14T09:45:30;101136.30;;;25.80;30.97
62055;BME280;48653;51.742;-1.256;2023-06-14T09:47:55;101131.60;;;26.46;30.65
62055;BME280;48653;51.742;-1.256;2023-06-14T09:50:21;101135.07;;;26.40;31.96
62055;BME280;48653;51.742;-1.256;2023-06-14T09:52:48;101131.25;;;27.86;30.65
62055;BME280;48653;51.742;-1.256;2023-06-14T09:55:12;101132.79;;;27.54;30.84
62055;BME280;48653;51.742;-1.256;2023-06-14T09:57:36;101126.05;;;28.06;29.45
62055;BME280;48653;51.742;-1.256;2023-06-14T10:00:02;101127.63;;;28.05;29.81
62055;BME280;48653;51.742;-1.256;2023-06-14T10:02:29;101128.94;;;27.59;29.20
62055;BME280;48653;51.742;-1.256;2023-06-14T10:04:56;101126.92;;;27.85;29.38
62055;BME280;48653;51.742;-1.256;2023-06-14T10:07:19;101125.53;;;28.41;28.98
62055;BME280;48653;51.742;-1.256;2023-06-14T10:09:42;101123.15;;;28.26;29.32
62055;BME280;48653;51.742;-1.256;2023-06-14T10:12:08;101126.81;;;28.48;29.54
62055;BME280;48653;51.742;-1.256;2023-06-14T10:14:33;101127.07;;;28.88;29.12
62055;BME280;48653;51.742;-1.256;2023-06-14T10:17:03;101123.42;;;28.20;28.94
62055;BME280;48653;51.742;-1.256;2023-06-14T10:19:25;101122.95;;;29.05;29.29
62055;BME280;48653;51.742;-1.256;2023-06-14T10:21:54;101122.80;;;27.42;30.48
62055;BME280;48653;51.742;-1.256;2023-06-14T10:24:14;101126.14;;;28.63;29.98
62055;BME280;48653;51.742;-1.256;2023-06-14T10:29:08;101126.58;;;28.18;30.23
62055;BME280;48653;51.742;-1.256;2023-06-14T10:31:41;101119.64;;;28.74;28.42
62055;BME280;48653;51.742;-1.256;2023-06-14T10:33:56;101122.72;;;28.98;28.75
62055;BME280;48653;51.742;-1.256;2023-06-14T10:36:26;101125.21;;;29.04;30.09
62055;BME280;48653;51.742;-1.256;2023-06-14T10:38:44;101130.11;;;28.42;28.64
62055;BME280;48653;51.742;-1.256;2023-06-14T10:41:09;101125.35;;;28.79;28.61
62055;BME280;48653;51.742;-1.256;2023-06-14T10:43:34;101124.91;;;29.52;27.16
62055;BME280;48653;51.742;-1.256;2023-06-14T10:46:13;101130.21;;;29.70;27.21
62055;BME280;48653;51.742;-1.256;2023-06-14T10:48:30;101130.35;;;29.92;28.07
62055;BME280;48653;51.742;-1.256;2023-06-14T10:50:59;101125.59;;;29.84;27.58
62055;BME280;48653;51.742;-1.256;2023-06-14T10:53:23;101124.20;;;30.30;26.83
62055;BME280;48653;51.742;-1.256;2023-06-14T10:55:40;101124.87;;;30.56;26.62
62055;BME280;48653;51.742;-1.256;2023-06-14T10:58:06;101125.14;;;30.67;26.34
62055;BME280;48653;51.742;-1.256;2023-06-14T11:00:33;101124.04;;;30.56;25.75
62055;BME280;48653;51.742;-1.256;2023-06-14T11:05:25;101118.01;;;30.73;26.08
62055;BME280;48653;51.742;-1.256;2023-06-14T11:07:57;101116.87;;;30.03;26.24
62055;BME280;48653;51.742;-1.256;2023-06-14T11:10:20;101116.84;;;30.61;27.50
62055;BME280;48653;51.742;-1.256;2023-06-14T11:12:40;101109.05;;;30.33;27.36
62055;BME280;48653;51.742;-1.256;2023-06-14T11:15:03;101108.02;;;30.93;27.06
62055;BME280;48653;51.742;-1.256;2023-06-14T11:17:28;101105.78;;;31.76;26.30
62055;BME280;48653;51.742;-1.256;2023-06-14T11:22:18;101100.65;;;31.91;24.57
62055;BME280;48653;51.742;-1.256;2023-06-14T11:24:43;101102.31;;;30.91;26.23
62055;BME280;48653;51.742;-1.256;2023-06-14T11:27:08;101097.62;;;31.81;26.02
62055;BME280;48653;51.742;-1.256;2023-06-14T11:29:34;101094.64;;;31.93;24.87
62055;BME280;48653;51.742;-1.256;2023-06-14T11:31:59;101100.04;;;32.00;24.88
62055;BME280;48653;51.742;-1.256;2023-06-14T11:34:24;101097.35;;;32.30;25.16
62055;BME280;48653;51.742;-1.256;2023-06-14T11:36:50;101097.03;;;32.66;24.67
62055;BME280;48653;51.742;-1.256;2023-06-14T11:39:15;101095.19;;;32.01;24.46
62055;BME280;48653;51.742;-1.256;2023-06-14T11:41:41;101096.38;;;32.00;26.17
62055;BME280;48653;51.742;-1.256;2023-06-14T11:44:06;101096.45;;;31.98;24.70
62055;BME280;48653;51.742;-1.256;2023-06-14T11:46:31;101091.63;;;31.64;25.01
62055;BME280;48653;51.742;-1.256;2023-06-14T11:48:56;101088.00;;;31.56;24.96
62055;BME280;48653;51.742;-1.256;2023-06-14T11:51:22;101089.26;;;30.90;25.47
62055;BME280;48653;51.742;-1.256;2023-06-14T11:53:47;101083.01;;;31.97;25.22
62055;BME280;48653;51.742;-1.256;2023-06-14T11:56:12;101082.03;;;32.11;25.47
62055;BME280;48653;51.742;-1.256;2023-06-14T11:58:37;101082.04;;;32.31;23.86
62055;BME280;48653;51.742;-1.256;2023-06-14T12:01:03;101077.83;;;31.87;24.80
62055;BME280;48653;51.742;-1.256;2023-06-14T12:03:27;101082.85;;;31.82;25.68
62055;BME280;48653;51.742;-1.256;2023-06-14T12:06:02;101082.41;;;31.54;25.11
62055;BME280;48653;51.742;-1.256;2023-06-14T12:08:17;101079.28;;;31.65;25.30
62055;BME280;48653;51.742;-1.256;2023-06-14T12:10:43;101075.08;;;31.39;24.93
62055;BME280;48653;51.742;-1.256;2023-06-14T12:13:07;101070.62;;;31.75;24.77
62055;BME280;48653;51.742;-1.256;2023-06-14T12:15:32;101068.34;;;30.76;24.28
62055;BME280;48653;51.742;-1.256;2023-06-14T12:17:58;101063.76;;;30.76;25.49
62055;BME280;48653;51.742;-1.256;2023-06-14T12:20:28;101062.49;;;31.70;25.05
62055;BME280;48653;51.742;-1.256;2023-06-14T12:22:51;101064.02;;;32.04;25.04
62055;BME280;48653;51.742;-1.256;2023-06-14T12:25:23;101059.01;;;31.72;24.33
62055;BME280;48653;51.742;-1.256;2023-06-14T12:27:40;101063.87;;;32.12;24.40
62055;BME280;48653;51.742;-1.256;2023-06-14T12:30:06;101064.00;;;31.90;22.15
62055;BME280;48653;51.742;-1.256;2023-06-14T12:32:29;101064.21;;;31.67;22.60
62055;BME280;48653;51.742;-1.256;2023-06-14T12:34:54;101067.82;;;30.58;24.13
62055;BME280;48653;51.742;-1.256;2023-06-14T12:37:20;101070.15;;;31.50;23.40